Time;durP1;ratioP1;P1;durP2;ratioP2;P2;SDS_P1;SDS_P2;PMS_P1;PMS_P2;Temp;Humidity;BMP_temperature;BMP_pressure;BME280_temperature;BME280_humidity;BME280_pressure;Samples;Min_cycle;Max_cycle;Signal;HPM_P1;HPM_P2
2023/12/14 00:00:10;;;;;;;16.85;7.88;;;;;;;6.52;100.00;97059.28;2622549;28;20074;-92
2023/12/14 00:01:25;;;;;;;21.83;8.35;;;;;;;6.67;100.00;97064.88;2622961;28;20059;-91
2023/12/14 00:02:41;;;;;;;19.50;8.77;;;;;;;6.67;100.00;97068.34;2620760;28;20415;-91
2023/12/14 00:03:57;;;;;;;17.73;8.25;;;;;;;6.49;100.00;97073.22;2621656;28;20040;-90
2023/12/14 00:05:12;;;;;;;25.60;8.63;;;;;;;6.61;100.00;97068.53;2622473;28;20059;-92
2023/12/14 00:06:28;;;;;;;20.25;8.68;;;;;;;6.58;100.00;97081.63;2622083;28;20098;-91
2023/12/14 00:07:43;;;;;;;17.38;8.38;;;;;;;6.67;100.00;97073.53;2622400;28;20058;-91
2023/12/14 00:08:59;;;;;;;17.33;8.45;;;;;;;6.63;100.00;97077.97;2628858;28;20043;-91
2023/12/14 00:10:17;;;;;;;12.45;6.78;;;;;;;6.60;100.00;97087.63;2629423;28;20040;-91
2023/12/14 00:11:37;;;;;;;13.07;7.53;;;;;;;6.61;100.00;97084.13;2629780;28;20487;-91
2023/12/14 00:12:55;;;;;;;12.18;6.82;;;;;;;6.60;100.00;97092.84;2629010;28;20131;-91
2023/12/14 00:14:10;;;;;;;14.10;7.38;;;;;;;6.60;100.00;97085.91;2623735;28;20487;-92
2023/12/14 00:15:26;;;;;;;13.68;7.80;;;;;;;6.65;100.00;97083.16;2622380;28;20044;-91
2023/12/14 00:16:41;;;;;;;11.07;7.03;;;;;;;6.65;100.00;97075.34;2628784;28;20479;-90
2023/12/14 00:17:57;;;;;;;13.73;7.78;;;;;;;6.66;100.00;97083.97;2629038;28;20052;-90
2023/12/14 00:19:13;;;;;;;12.82;7.72;;;;;;;6.62;100.00;97075.44;2628484;28;20063;-90
2023/12/14 00:20:28;;;;;;;14.48;7.70;;;;;;;6.60;100.00;97088.50;2628655;28;20483;-92
2023/12/14 00:21:45;;;;;;;14.23;7.72;;;;;;;6.54;100.00;97083.50;2617988;28;20158;-91
2023/12/14 00:23:01;;;;;;;13.15;6.95;;;;;;;6.43;100.00;97086.47;2616035;28;20048;-91
2023/12/14 00:24:16;;;;;;;12.35;6.93;;;;;;;6.47;100.00;97087.22;2617087;28;20044;-91
2023/12/14 00:25:33;;;;;;;11.90;6.40;;;;;;;6.54;100.00;97086.09;2621405;28;20107;-91
2023/12/14 00:26:49;;;;;;;12.88;7.05;;;;;;;6.59;100.00;97091.13;2628750;28;20518;-91
2023/12/14 00:28:04;;;;;;;12.50;6.97;;;;;;;6.46;100.00;97082.91;2627293;28;20063;-91
2023/12/14 00:29:20;;;;;;;15.63;7.47;;;;;;;6.14;100.00;97090.00;2618458;28;20044;-91
2023/12/14 00:30:35;;;;;;;14.38;7.28;;;;;;;6.01;100.00;97094.72;2611192;28;20118;-91
2023/12/14 00:31:51;;;;;;;14.18;8.38;;;;;;;5.93;100.00;97088.00;2614029;28;20091;-91
2023/12/14 00:33:06;;;;;;;13.05;7.90;;;;;;;5.81;100.00;97093.59;2625970;28;20051;-91
2023/12/14 00:34:22;;;;;;;17.95;8.07;;;;;;;5.68;100.00;97103.47;2626782;28;20094;-90
2023/12/14 00:35:38;;;;;;;15.82;8.30;;;;;;;5.73;100.00;97100.75;2626613;28;20280;-90
2023/12/14 00:36:53;;;;;;;23.38;9.48;;;;;;;5.83;100.00;97101.31;2625384;28;20076;-91
2023/12/14 00:38:09;;;;;;;18.92;9.43;;;;;;;6.05;100.00;97096.34;2621321;28;20491;-91
2023/12/14 00:39:25;;;;;;;19.30;8.65;;;;;;;6.11;100.00;97098.75;2630984;28;20048;-91
2023/12/14 00:40:40;;;;;;;20.88;9.27;;;;;;;6.22;100.00;97103.59;2631318;28;20036;-92
2023/12/14 00:41:56;;;;;;;16.27;9.20;;;;;;;6.28;100.00;97102.56;2631182;28;20043;-92
2023/12/14 00:43:11;;;;;;;16.75;8.70;;;;;;;6.30;100.00;97099.03;2619174;28;20045;-91
2023/12/14 00:44:27;;;;;;;22.48;9.15;;;;;;;6.31;100.00;97097.25;2623953;28;20561;-91
2023/12/14 00:45:43;;;;;;;27.45;10.80;;;;;;;6.40;100.00;97102.16;2631163;28;20503;-93
2023/12/14 00:47:00;;;;;;;31.88;10.45;;;;;;;6.47;100.00;97098.44;2625462;28;20989;-92
2023/12/14 00:48:15;;;;;;;38.15;9.10;;;;;;;6.43;100.00;97106.41;2627161;28;20161;-92
2023/12/14 00:49:31;;;;;;;27.63;8.02;;;;;;;6.40;100.00;97107.34;2623452;28;20052;-91
2023/12/14 00:50:46;;;;;;;23.52;8.18;;;;;;;6.00;100.00;97116.38;2622683;28;20044;-91
2023/12/14 00:52:03;;;;;;;29.40;9.40;;;;;;;5.74;100.00;97111.09;2621782;28;20613;-91
2023/12/14 00:53:19;;;;;;;20.52;9.27;;;;;;;5.82;100.00;97110.00;2620525;28;20044;-91
2023/12/14 00:54:35;;;;;;;18.42;8.50;;;;;;;5.83;100.00;97122.09;2623583;28;20051;-91
2023/12/14 00:55:50;;;;;;;17.05;8.40;;;;;;;6.00;100.00;97113.78;2624107;28;20044;-92
2023/12/14 00:57:06;;;;;;;18.80;9.43;;;;;;;6.08;100.00;97117.03;2623682;28;20048;-91
2023/12/14 00:58:23;;;;;;;16.50;9.05;;;;;;;6.17;100.00;97115.91;2630448;28;20043;-92
2023/12/14 00:59:40;;;;;;;17.98;8.98;;;;;;;6.24;100.00;97114.78;2631044;28;20050;-92
2023/12/14 01:00:56;;;;;;;16.13;9.00;;;;;;;6.24;100.00;97122.59;2627745;28;20925;-92
2023/12/14 01:02:11;;;;;;;18.05;8.65;;;;;;;6.26;100.00;97118.19;2627405;28;20043;-91
2023/12/14 01:03:27;;;;;;;15.70;7.78;;;;;;;5.83;100.00;97125.56;2630557;28;20973;-92
2023/12/14 01:04:43;;;;;;;16.98;8.25;;;;;;;6.15;100.00;97134.13;2623971;28;20091;-92
2023/12/14 01:05:58;;;;;;;17.95;8.70;;;;;;;6.22;100.00;97130.47;2629251;28;20044;-91
2023/12/14 01:07:14;;;;;;;21.60;8.45;;;;;;;6.21;100.00;97127.88;2627382;28;20047;-91
2023/12/14 01:08:30;;;;;;;27.60;8.77;;;;;;;6.05;100.00;97137.91;2630060;28;20064;-92
2023/12/14 01:09:45;;;;;;;23.50;7.78;;;;;;;6.05;100.00;97140.50;2627251;28;20757;-92
2023/12/14 01:11:01;;;;;;;46.67;9.13;;;;;;;6.04;100.00;97136.22;2620905;28;20048;-93
2023/12/14 01:12:17;;;;;;;26.08;8.70;;;;;;;6.06;100.00;97143.06;2613164;28;20618;-91
2023/12/14 01:13:32;;;;;;;65.68;9.85;;;;;;;6.04;100.00;97144.88;2617400;28;20055;-92
2023/12/14 01:14:48;;;;;;;62.00;10.15;;;;;;;5.98;100.00;97150.19;2623402;28;20218;-91
2023/12/14 01:16:04;;;;;;;135.98;13.48;;;;;;;6.08;100.00;97148.22;2630084;28;20094;-91
2023/12/14 01:17:19;;;;;;;106.93;11.95;;;;;;;6.02;100.00;97146.66;2626032;28;20048;-91
2023/12/14 01:18:35;;;;;;;93.85;11.90;;;;;;;6.08;100.00;97148.22;2627692;28;20039;-93
2023/12/14 01:19:51;;;;;;;56.53;9.77;;;;;;;6.19;100.00;97150.47;2629823;28;20056;-91
2023/12/14 01:21:06;;;;;;;18.65;8.43;;;;;;;6.27;100.00;97148.47;2630255;28;20234;-91
2023/12/14 01:22:22;;;;;;;16.95;7.78;;;;;;;6.32;100.00;97153.53;2630022;28;20560;-91
2023/12/14 01:23:38;;;;;;;15.55;8.30;;;;;;;6.32;100.00;97140.53;2623863;28;20117;-92
2023/12/14 01:24:53;;;;;;;14.18;7.47;;;;;;;6.32;100.00;97151.81;2619058;28;20049;-92
2023/12/14 01:26:09;;;;;;;15.25;8.05;;;;;;;6.23;100.00;97157.28;2621185;28;20044;-92
2023/12/14 01:27:25;;;;;;;18.40;8.35;;;;;;;6.31;100.00;97155.31;2630728;28;20069;-92
2023/12/14 01:28:40;;;;;;;19.83;8.93;;;;;;;6.35;100.00;97151.69;2630590;28;20036;-92
2023/12/14 01:29:56;;;;;;;15.27;7.75;;;;;;;6.34;100.00;97157.81;2630457;28;20068;-92
2023/12/14 01:31:12;;;;;;;16.45;8.00;;;;;;;6.11;100.00;97157.66;2630158;28;20750;-92
2023/12/14 01:32:27;;;;;;;18.33;8.00;;;;;;;5.98;100.00;97163.19;2629808;28;20055;-91
2023/12/14 01:33:42;;;;;;;19.33;9.43;;;;;;;5.67;100.00;97163.28;2629960;28;20097;-91
2023/12/14 01:34:58;;;;;;;17.38;8.13;;;;;;;5.82;100.00;97164.53;2630267;28;20048;-92
2023/12/14 01:36:23;;;;;;;18.25;8.93;;;;;;;6.01;100.00;97168.34;2624880;28;20093;-92
2023/12/14 01:37:38;;;;;;;15.75;8.40;;;;;;;6.10;100.00;97167.22;2627297;28;20140;-93
2023/12/14 01:38:54;;;;;;;18.85;8.68;;;;;;;5.95;100.00;97168.50;2629873;28;20070;-92
2023/12/14 01:40:10;;;;;;;17.80;8.95;;;;;;;5.78;100.00;97167.25;2622696;28;20043;-92
2023/12/14 01:41:26;;;;;;;16.75;8.65;;;;;;;5.94;100.00;97169.38;2626244;28;20040;-93
2023/12/14 01:42:41;;;;;;;18.40;8.70;;;;;;;5.86;100.00;97172.22;2630460;28;20494;-92
2023/12/14 01:43:57;;;;;;;16.88;8.82;;;;;;;6.03;100.00;97174.34;2623387;28;20478;-92
2023/12/14 01:45:16;;;;;;;17.92;8.85;;;;;;;5.93;100.00;97171.13;2621993;28;20836;-92
2023/12/14 01:46:32;;;;;;;16.92;8.25;;;;;;;5.88;100.00;97170.41;2621629;28;20049;-92
2023/12/14 01:47:47;;;;;;;16.10;8.65;;;;;;;5.81;100.00;97174.09;2625854;28;20052;-93
2023/12/14 01:49:03;;;;;;;18.73;8.80;;;;;;;6.12;100.00;97182.75;2623671;28;20078;-92
2023/12/14 01:50:18;;;;;;;18.42;8.45;;;;;;;6.18;100.00;97179.97;2622943;28;20040;-93
2023/12/14 01:51:35;;;;;;;21.20;9.00;;;;;;;6.24;100.00;97187.56;2630007;28;20052;-92
2023/12/14 01:52:50;;;;;;;21.92;9.30;;;;;;;6.25;100.00;97180.63;2630372;28;20048;-93
2023/12/14 01:54:06;;;;;;;20.35;8.77;;;;;;;6.22;100.00;97177.25;2630336;28;20270;-92
2023/12/14 01:55:22;;;;;;;14.82;7.45;;;;;;;6.22;100.00;97187.63;2631125;28;20044;-91
2023/12/14 01:56:37;;;;;;;22.88;9.10;;;;;;;5.98;100.00;97186.56;2619917;28;20503;-92
2023/12/14 01:57:53;;;;;;;23.30;8.85;;;;;;;5.91;100.00;97182.47;2617160;28;20104;-91
2023/12/14 01:59:09;;;;;;;19.17;9.52;;;;;;;6.08;100.00;97182.84;2629943;28;20712;-92
2023/12/14 02:00:52;;;;;;;21.83;8.73;;;;;;;6.18;100.00;97192.97;2617488;28;20487;-91
2023/12/14 02:02:08;;;;;;;26.50;9.10;;;;;;;6.02;100.00;97196.03;2626498;28;20411;-94
2023/12/14 02:03:23;;;;;;;33.42;9.32;;;;;;;6.02;100.00;97196.03;2623713;28;20101;-92
2023/12/14 02:04:39;;;;;;;31.85;10.00;;;;;;;6.08;100.00;97190.63;2623499;28;20090;-92
2023/12/14 02:05:55;;;;;;;57.22;10.82;;;;;;;6.22;100.00;97197.16;2629240;28;20514;-92
2023/12/14 02:07:11;;;;;;;47.38;9.90;;;;;;;6.25;100.00;97202.25;2624564;28;20056;-93
2023/12/14 02:08:28;;;;;;;29.52;10.10;;;;;;;6.31;100.00;97203.81;2619040;28;20047;-93
2023/12/14 02:09:44;;;;;;;31.33;8.88;;;;;;;6.33;100.00;97204.63;2623749;28;20608;-93
2023/12/14 02:11:00;;;;;;;24.83;9.05;;;;;;;6.17;100.00;97204.25;2629309;28;20098;-93
2023/12/14 02:12:15;;;;;;;26.45;10.63;;;;;;;6.18;100.00;97206.78;2623023;28;20407;-93
2023/12/14 02:13:31;;;;;;;21.00;9.63;;;;;;;6.14;100.00;97209.53;2621916;28;20051;-92
2023/12/14 02:14:48;;;;;;;21.67;9.50;;;;;;;5.85;100.00;97203.41;2620343;28;20040;-92
2023/12/14 02:16:04;;;;;;;21.77;9.05;;;;;;;5.77;100.00;97211.44;2629292;28;20068;-93
2023/12/14 02:17:20;;;;;;;20.23;8.52;;;;;;;5.40;100.00;97208.13;2629615;28;20056;-93
2023/12/14 02:18:35;;;;;;;19.10;9.00;;;;;;;5.19;100.00;97220.78;2622785;28;20052;-92
2023/12/14 02:19:51;;;;;;;20.58;9.35;;;;;;;5.23;100.00;97214.63;2629866;28;20044;-92
2023/12/14 02:21:07;;;;;;;19.25;9.63;;;;;;;5.41;100.00;97219.38;2629541;28;20040;-92
2023/12/14 02:22:22;;;;;;;27.90;9.50;;;;;;;5.32;100.00;97213.50;2629178;28;20065;-92
2023/12/14 02:23:45;;;;;;;23.70;9.32;;;;;;;5.22;100.00;97214.63;2620900;28;20048;-92
2023/12/14 02:25:01;;;;;;;22.50;9.82;;;;;;;5.25;100.00;97219.78;2615835;28;20067;-92
2023/12/14 02:26:16;;;;;;;25.52;10.48;;;;;;;5.29;100.00;97216.19;2614025;28;20415;-92
2023/12/14 02:27:32;;;;;;;22.40;9.60;;;;;;;5.15;100.00;97219.13;2623009;28;20036;-92
2023/12/14 02:28:48;;;;;;;26.05;10.52;;;;;;;5.37;100.00;97223.78;2629197;28;20051;-92
2023/12/14 02:30:03;;;;;;;26.25;11.18;;;;;;;5.56;100.00;97218.06;2623051;28;20044;-92
2023/12/14 02:31:20;;;;;;;22.05;10.05;;;;;;;5.65;100.00;97220.44;2621795;28;20081;-92
2023/12/14 02:32:35;;;;;;;26.48;10.40;;;;;;;5.75;100.00;97224.47;2622625;28;20934;-92
2023/12/14 02:33:51;;;;;;;24.42;9.45;;;;;;;5.72;100.00;97211.56;2621370;28;20048;-94
2023/12/14 02:35:08;;;;;;;34.33;10.07;;;;;;;5.60;100.00;97214.53;2627542;28;20109;-92
2023/12/14 02:36:24;;;;;;;61.28;12.43;;;;;;;5.74;100.00;97221.91;2627113;28;20078;-93
2023/12/14 02:37:42;;;;;;;153.07;14.65;;;;;;;5.61;100.00;97218.81;2622955;28;20048;-92
2023/12/14 02:38:57;;;;;;;114.22;14.95;;;;;;;5.74;100.00;97224.50;2629953;28;20396;-93
2023/12/14 02:40:14;;;;;;;130.35;15.57;;;;;;;5.74;100.00;97227.09;2626553;28;20080;-93
2023/12/14 02:41:29;;;;;;;144.55;19.92;;;;;;;5.76;100.00;97223.56;2622959;28;20139;-92
2023/12/14 02:42:45;;;;;;;92.60;14.90;;;;;;;5.89;100.00;97225.81;2620109;28;20044;-92
2023/12/14 02:44:00;;;;;;;140.00;14.13;;;;;;;5.96;100.00;97229.09;2629828;28;20048;-93
2023/12/14 02:45:16;;;;;;;123.47;15.25;;;;;;;6.00;100.00;97223.75;2630593;28;20048;-92
2023/12/14 02:46:31;;;;;;;129.05;17.50;;;;;;;6.04;100.00;97229.75;2629450;28;20051;-93
2023/12/14 02:47:49;;;;;;;117.40;14.82;;;;;;;5.92;100.00;97234.38;2629507;28;20052;-93
2023/12/14 02:49:05;;;;;;;120.75;13.65;;;;;;;5.92;100.00;97230.94;2623475;28;20046;-93
2023/12/14 02:50:21;;;;;;;67.05;12.05;;;;;;;5.97;100.00;97231.63;2623233;28;20051;-92
2023/12/14 02:51:36;;;;;;;98.72;12.93;;;;;;;6.01;100.00;97235.91;2618925;28;20071;-92
2023/12/14 02:52:52;;;;;;;100.63;12.90;;;;;;;6.03;100.00;97234.09;2629561;28;20105;-94
2023/12/14 02:54:07;;;;;;;88.82;12.98;;;;;;;6.00;100.00;97231.53;2629797;28;20418;-93
2023/12/14 02:55:24;;;;;;;110.18;16.35;;;;;;;6.02;100.00;97235.00;2629454;28;20132;-91
2023/12/14 02:56:39;;;;;;;39.90;10.55;;;;;;;6.03;100.00;97233.25;2622645;28;20093;-92
2023/12/14 02:57:54;;;;;;;41.47;10.40;;;;;;;5.87;100.00;97227.63;2621969;28;20098;-92
2023/12/14 02:59:10;;;;;;;53.75;11.35;;;;;;;5.75;100.00;97237.47;2623309;28;20072;-92
2023/12/14 03:00:26;;;;;;;50.70;10.43;;;;;;;5.76;100.00;97235.69;2622909;28;20043;-92
2023/12/14 03:01:42;;;;;;;52.97;11.90;;;;;;;5.65;100.00;97239.44;2622733;28;20058;-93
2023/12/14 03:02:57;;;;;;;37.42;10.13;;;;;;;5.52;100.00;97238.09;2629756;28;20063;-93
2023/12/14 03:04:13;;;;;;;44.80;10.57;;;;;;;5.30;100.00;97242.97;2629526;28;20039;-93
2023/12/14 03:05:29;;;;;;;40.38;10.55;;;;;;;5.16;100.00;97251.97;2619929;28;20044;-92
2023/12/14 03:06:44;;;;;;;42.33;12.20;;;;;;;5.20;100.00;97245.84;2622804;28;20130;-92
2023/12/14 03:08:00;;;;;;;53.20;12.93;;;;;;;5.26;100.00;97246.56;2622798;28;20044;-92
2023/12/14 03:09:15;;;;;;;23.08;10.85;;;;;;;5.44;100.00;97245.22;2629422;28;20052;-92
2023/12/14 03:10:31;;;;;;;24.48;11.00;;;;;;;5.46;100.00;97249.50;2619383;28;20539;-93
2023/12/14 03:11:47;;;;;;;32.30;10.40;;;;;;;5.34;100.00;97245.47;2619667;28;20101;-93
2023/12/14 03:13:03;;;;;;;36.42;11.05;;;;;;;5.22;100.00;97256.16;2622847;28;20439;-93
2023/12/14 03:14:19;;;;;;;27.92;10.20;;;;;;;5.11;100.00;97260.78;2619880;28;20059;-91
2023/12/14 03:15:34;;;;;;;28.02;10.05;;;;;;;5.00;100.00;97261.03;2626809;28;20039;-94
2023/12/14 03:16:50;;;;;;;32.25;11.65;;;;;;;4.81;100.00;97261.50;2629768;28;20059;-93
2023/12/14 03:18:05;;;;;;;44.65;10.40;;;;;;;4.79;100.00;97264.13;2624774;28;20133;-93
2023/12/14 03:19:21;;;;;;;42.78;11.48;;;;;;;4.84;100.00;97264.00;2619718;28;20392;-92
2023/12/14 03:20:36;;;;;;;34.42;12.35;;;;;;;4.84;100.00;97261.41;2619996;28;20709;-92
2023/12/14 03:21:52;;;;;;;29.02;10.20;;;;;;;4.96;100.00;97262.88;2623121;28;20044;-92
2023/12/14 03:23:08;;;;;;;25.05;10.18;;;;;;;4.76;100.00;97268.53;2629591;28;20052;-92
2023/12/14 03:24:23;;;;;;;33.50;10.80;;;;;;;4.79;100.00;97263.28;2629684;28;20062;-92
2023/12/14 03:25:39;;;;;;;25.88;10.55;;;;;;;4.77;100.00;97265.91;2630044;28;20423;-91
2023/12/14 03:26:54;;;;;;;22.10;9.98;;;;;;;4.79;100.00;97265.88;2630142;28;20055;-92
2023/12/14 03:28:10;;;;;;;18.67;8.88;;;;;;;4.88;100.00;97265.63;2624095;28;20106;-92
2023/12/14 03:29:26;;;;;;;21.67;9.57;;;;;;;4.98;100.00;97270.59;2633214;28;20218;-91
2023/12/14 03:30:42;;;;;;;23.88;9.95;;;;;;;4.84;100.00;97271.78;2635741;28;20114;-92
2023/12/14 03:31:58;;;;;;;27.05;10.18;;;;;;;4.94;100.00;97269.81;2629057;28;20495;-92
2023/12/14 03:33:13;;;;;;;27.88;9.82;;;;;;;5.12;100.00;97271.13;2623283;28;20075;-92
2023/12/14 03:34:29;;;;;;;42.33;9.77;;;;;;;5.37;100.00;97273.09;2628825;28;20412;-93
2023/12/14 03:35:46;;;;;;;19.77;8.98;;;;;;;5.09;100.00;97274.63;2629514;28;20054;-90
2023/12/14 03:37:02;;;;;;;30.52;9.90;;;;;;;5.17;100.00;97271.88;2629931;28;20501;-92
2023/12/14 03:38:17;;;;;;;44.80;9.93;;;;;;;5.32;100.00;97275.81;2629236;28;20085;-93
2023/12/14 03:39:33;;;;;;;34.72;9.05;;;;;;;5.20;100.00;97283.91;2622798;28;20070;-92
2023/12/14 03:40:49;;;;;;;56.47;10.68;;;;;;;5.40;100.00;97285.16;2623101;28;20047;-92
2023/12/14 03:42:04;;;;;;;57.53;9.63;;;;;;;5.48;100.00;97293.56;2622829;28;20560;-92
2023/12/14 03:43:20;;;;;;;79.22;10.68;;;;;;;5.41;100.00;97292.88;2622614;28;20568;-92
2023/12/14 03:44:35;;;;;;;64.82;10.82;;;;;;;5.51;100.00;97294.34;2622875;28;20137;-92
2023/12/14 03:45:51;;;;;;;21.92;9.35;;;;;;;5.49;100.00;97300.47;2623020;28;20055;-92
2023/12/14 03:47:08;;;;;;;38.30;10.88;;;;;;;5.46;100.00;97288.44;2620873;28;20107;-92
2023/12/14 03:48:24;;;;;;;40.97;9.45;;;;;;;5.35;100.00;97295.66;2628885;28;20055;-92
2023/12/14 03:49:39;;;;;;;32.65;9.93;;;;;;;5.45;100.00;97294.53;2622623;28;20048;-92
2023/12/14 03:50:55;;;;;;;50.22;10.85;;;;;;;5.47;100.00;97294.47;2621146;28;20040;-92
2023/12/14 03:52:11;;;;;;;27.52;9.27;;;;;;;5.48;100.00;97293.56;2629160;28;20060;-93
2023/12/14 03:53:27;;;;;;;22.08;8.30;;;;;;;5.49;100.00;97297.88;2628852;28;20048;-92
2023/12/14 03:54:42;;;;;;;22.88;8.85;;;;;;;5.30;100.00;97295.75;2628824;28;20491;-92
2023/12/14 03:55:58;;;;;;;80.40;11.32;;;;;;;5.47;100.00;97294.47;2626754;28;20055;-92
2023/12/14 03:57:14;;;;;;;63.60;12.05;;;;;;;5.57;100.00;97297.66;2627258;28;20044;-92
2023/12/14 03:58:29;;;;;;;79.05;10.63;;;;;;;5.44;100.00;97297.97;2629880;28;20044;-92
2023/12/14 03:59:48;;;;;;;96.60;13.23;;;;;;;5.52;100.00;97303.00;2629082;28;20534;-93
2023/12/14 04:01:03;;;;;;;120.05;11.15;;;;;;;5.39;100.00;97304.22;2629092;28;20101;-92
2023/12/14 04:02:19;;;;;;;116.47;11.63;;;;;;;5.28;100.00;97307.91;2622520;28;20070;-93
2023/12/14 04:03:35;;;;;;;59.40;9.10;;;;;;;5.04;100.00;97311.97;2620789;28;20082;-92
2023/12/14 04:04:52;;;;;;;119.00;12.65;;;;;;;5.22;100.00;97310.66;2627596;28;20051;-92
2023/12/14 04:06:07;;;;;;;31.98;10.38;;;;;;;5.44;100.00;97307.53;2622203;28;20256;-92
2023/12/14 04:07:23;;;;;;;54.08;9.68;;;;;;;5.49;100.00;97309.13;2629090;28;20047;-92
2023/12/14 04:08:39;;;;;;;47.17;9.57;;;;;;;5.56;100.00;97312.41;2620217;28;20051;-93
2023/12/14 04:09:54;;;;;;;34.78;8.98;;;;;;;5.43;100.00;97304.06;2629103;28;20974;-92
2023/12/14 04:11:10;;;;;;;116.18;12.77;;;;;;;5.51;100.00;97315.13;2629187;28;20131;-93
2023/12/14 04:12:26;;;;;;;65.78;10.32;;;;;;;5.53;100.00;97307.31;2629583;28;20040;-93
2023/12/14 04:13:41;;;;;;;90.28;9.57;;;;;;;5.47;100.00;97316.09;2630595;28;20052;-92
2023/12/14 04:14:57;;;;;;;86.38;11.15;;;;;;;5.40;100.00;97316.28;2629235;28;20070;-92
2023/12/14 04:16:12;;;;;;;29.35;8.25;;;;;;;5.49;100.00;97322.09;2621666;28;20040;-91
2023/12/14 04:17:28;;;;;;;39.95;9.60;;;;;;;5.47;100.00;97329.06;2625017;28;20048;-93
2023/12/14 04:18:44;;;;;;;54.10;10.13;;;;;;;5.53;100.00;97324.59;2624832;28;20078;-92
2023/12/14 04:20:00;;;;;;;61.35;8.98;;;;;;;5.64;100.00;97326.03;2620790;28;20054;-93
2023/12/14 04:21:15;;;;;;;87.00;9.43;;;;;;;5.70;100.00;97324.19;2621811;28;20527;-93
2023/12/14 04:22:31;;;;;;;18.13;7.55;;;;;;;5.74;100.00;97325.78;2624563;28;20050;-93
2023/12/14 04:23:47;;;;;;;20.58;7.30;;;;;;;5.75;100.00;97323.16;2631377;28;20044;-93
2023/12/14 04:25:02;;;;;;;23.25;7.82;;;;;;;5.76;100.00;97330.06;2631031;28;20051;-92
2023/12/14 04:26:18;;;;;;;46.45;8.75;;;;;;;5.62;100.00;97332.16;2620052;28;20174;-92
2023/12/14 04:27:34;;;;;;;21.23;7.75;;;;;;;5.60;100.00;97334.78;2621500;28;20052;-91
2023/12/14 04:28:50;;;;;;;16.92;7.30;;;;;;;5.39;100.00;97333.59;2631245;28;20078;-93
2023/12/14 04:30:10;;;;;;;52.78;9.13;;;;;;;5.55;100.00;97333.22;2630727;28;20040;-92
2023/12/14 04:31:26;;;;;;;74.38;11.77;;;;;;;5.48;100.00;97340.31;2620096;28;20056;-92
2023/12/14 04:32:41;;;;;;;40.35;8.75;;;;;;;5.29;100.00;97339.91;2620824;28;20643;-92
2023/12/14 04:33:57;;;;;;;38.45;8.35;;;;;;;5.26;100.00;97346.03;2630761;28;20048;-91
2023/12/14 04:35:13;;;;;;;37.03;9.07;;;;;;;4.97;100.00;97341.53;2626612;28;20105;-93
2023/12/14 04:36:28;;;;;;;19.92;8.35;;;;;;;5.15;100.00;97341.09;2634221;28;20043;-92
2023/12/14 04:37:44;;;;;;;18.02;8.15;;;;;;;5.26;100.00;97342.56;2630312;28;20086;-92
2023/12/14 04:39:00;;;;;;;22.58;8.90;;;;;;;5.16;100.00;97341.94;2631315;28;20051;-92
2023/12/14 04:40:15;;;;;;;33.63;9.30;;;;;;;5.19;100.00;97344.47;2630413;28;20036;-93
2023/12/14 04:41:31;;;;;;;24.00;9.13;;;;;;;5.37;100.00;97348.38;2624693;28;20093;-92
2023/12/14 04:42:47;;;;;;;20.08;8.55;;;;;;;5.54;100.00;97353.13;2618633;28;20044;-92
2023/12/14 04:44:02;;;;;;;20.95;9.15;;;;;;;5.64;100.00;97358.94;2627683;28;20047;-92
2023/12/14 04:45:19;;;;;;;33.47;9.35;;;;;;;5.72;100.00;97359.59;2623839;28;20101;-92
2023/12/14 04:46:34;;;;;;;38.78;9.82;;;;;;;5.79;100.00;97362.88;2624175;28;20051;-92
2023/12/14 04:47:50;;;;;;;56.45;10.27;;;;;;;5.75;100.00;97369.91;2620934;28;20078;-93
2023/12/14 04:49:05;;;;;;;60.83;10.25;;;;;;;5.75;100.00;97380.31;2622232;28;20048;-92
2023/12/14 04:50:21;;;;;;;65.25;10.50;;;;;;;5.77;100.00;97375.91;2620420;28;20461;-92
2023/12/14 04:51:37;;;;;;;47.40;8.68;;;;;;;5.78;100.00;97379.34;2624289;28;20130;-92
2023/12/14 04:52:52;;;;;;;51.97;8.82;;;;;;;5.67;100.00;97381.41;2618434;28;20999;-94
2023/12/14 04:54:08;;;;;;;38.13;8.68;;;;;;;5.70;100.00;97373.53;2621400;28;20048;-93
2023/12/14 04:55:24;;;;;;;27.38;8.05;;;;;;;5.78;100.00;97381.94;2631087;28;20048;-93
2023/12/14 04:56:41;;;;;;;41.63;8.85;;;;;;;5.82;100.00;97387.94;2631528;28;20105;-93
2023/12/14 04:57:56;;;;;;;22.20;9.02;;;;;;;5.70;100.00;97379.56;2630825;28;20040;-92
2023/12/14 04:59:13;;;;;;;29.63;8.88;;;;;;;5.57;100.00;97381.63;2622822;28;20052;-93
2023/12/14 05:00:29;;;;;;;22.63;8.40;;;;;;;5.62;100.00;97384.94;2630831;28;20071;-93
2023/12/14 05:01:45;;;;;;;28.67;8.10;;;;;;;5.63;100.00;97385.81;2630875;28;20090;-92
2023/12/14 05:03:00;;;;;;;19.83;8.40;;;;;;;5.55;100.00;97393.78;2624389;28;20047;-93
2023/12/14 05:04:16;;;;;;;28.02;8.55;;;;;;;5.47;100.00;97395.72;2624368;28;20058;-93
2023/12/14 05:05:32;;;;;;;20.20;8.25;;;;;;;5.57;100.00;97393.72;2623818;28;20052;-93
2023/12/14 05:06:47;;;;;;;16.70;8.48;;;;;;;5.64;100.00;97396.13;2622532;28;20050;-93
2023/12/14 05:08:03;;;;;;;15.65;8.07;;;;;;;5.68;100.00;97398.69;2621141;28;20052;-93
2023/12/14 05:09:19;;;;;;;22.80;8.65;;;;;;;5.54;100.00;97396.41;2621602;28;20134;-93
2023/12/14 05:10:34;;;;;;;18.83;8.80;;;;;;;5.30;100.00;97396.97;2623609;28;20048;-93
2023/12/14 05:11:50;;;;;;;14.75;7.80;;;;;;;5.56;100.00;97399.81;2623100;28;20048;-93
2023/12/14 05:13:06;;;;;;;19.73;8.88;;;;;;;5.63;100.00;97403.97;2622549;28;20040;-94
2023/12/14 05:14:21;;;;;;;73.13;10.75;;;;;;;5.46;100.00;97405.25;2624347;28;20432;-93
2023/12/14 05:15:37;;;;;;;32.20;8.63;;;;;;;5.59;100.00;97405.78;2623699;28;20352;-93
2023/12/14 05:16:53;;;;;;;23.42;8.85;;;;;;;5.69;100.00;97403.81;2620625;28;20074;-93
2023/12/14 05:18:08;;;;;;;31.42;8.40;;;;;;;5.74;100.00;97404.56;2624044;28;20979;-93
2023/12/14 05:19:24;;;;;;;137.93;12.20;;;;;;;5.70;100.00;97412.47;2623629;28;20051;-94
2023/12/14 05:20:40;;;;;;;65.32;12.00;;;;;;;5.80;100.00;97414.78;2622246;28;20510;-93
2023/12/14 05:21:55;;;;;;;79.95;11.38;;;;;;;5.79;100.00;97413.09;2624007;28;20048;-93
2023/12/14 05:23:12;;;;;;;20.13;9.50;;;;;;;5.60;100.00;97417.06;2624553;28;20052;-93
2023/12/14 05:24:27;;;;;;;24.45;9.02;;;;;;;5.36;100.00;97420.16;2623648;28;20063;-92
2023/12/14 05:25:44;;;;;;;31.90;9.77;;;;;;;5.27;100.00;97416.94;2630378;28;20052;-92
2023/12/14 05:27:00;;;;;;;17.83;8.70;;;;;;;5.27;100.00;97423.00;2630507;28;20055;-92
2023/12/14 05:28:15;;;;;;;18.45;9.18;;;;;;;5.19;100.00;97428.38;2624015;28;20040;-93
2023/12/14 05:29:33;;;;;;;18.92;9.23;;;;;;;5.24;100.00;97420.47;2630737;28;20047;-91
2023/12/14 05:30:49;;;;;;;20.10;9.32;;;;;;;4.93;100.00;97414.22;2629651;28;20105;-92
2023/12/14 05:32:04;;;;;;;19.67;9.20;;;;;;;5.04;100.00;97415.75;2630638;28;20043;-93
2023/12/14 05:33:20;;;;;;;21.05;9.00;;;;;;;5.15;100.00;97420.69;2629157;28;20056;-93
2023/12/14 05:34:36;;;;;;;27.63;10.63;;;;;;;5.24;100.00;97425.69;2624028;28;20457;-93
2023/12/14 05:35:51;;;;;;;28.17;12.05;;;;;;;5.41;100.00;97420.06;2623804;28;20479;-93
2023/12/14 05:37:07;;;;;;;26.75;11.18;;;;;;;5.42;100.00;97424.38;2623896;28;20059;-93
2023/12/14 05:38:22;;;;;;;22.02;9.70;;;;;;;5.46;100.00;97428.63;2621243;28;20055;-92
2023/12/14 05:39:41;;;;;;;24.42;9.75;;;;;;;5.39;100.00;97424.44;2625310;28;20059;-93
2023/12/14 05:40:57;;;;;;;21.70;9.35;;;;;;;5.25;100.00;97431.69;2624381;28;20173;-92
2023/12/14 05:42:16;;;;;;;23.83;10.38;;;;;;;5.42;100.00;97434.75;2630601;28;20048;-93
2023/12/14 05:43:36;;;;;;;21.48;9.57;;;;;;;5.34;100.00;97436.69;2624405;28;20550;-93
2023/12/14 05:44:51;;;;;;;20.02;9.38;;;;;;;5.37;100.00;97437.44;2622546;28;20523;-92
2023/12/14 05:46:07;;;;;;;23.40;10.45;;;;;;;5.37;100.00;97444.41;2624289;28;20044;-93
2023/12/14 05:47:25;;;;;;;26.20;10.75;;;;;;;5.55;100.00;97443.13;2622840;28;20055;-93
2023/12/14 05:48:40;;;;;;;21.15;9.20;;;;;;;5.62;100.00;97455.06;2622946;28;20032;-93
2023/12/14 05:49:56;;;;;;;21.33;10.23;;;;;;;5.70;100.00;97454.88;2627517;28;20052;-93
2023/12/14 05:51:11;;;;;;;23.38;9.95;;;;;;;5.74;100.00;97463.44;2627592;28;20061;-92